| time (UTC) | temp F | wind direction | speed MPH | gust MPH | rain 1hr in | rain 24hr in | rain mn in | humidity % | barometer mb |
| 20260904151921 | 91 | 0 | 0.0 | 0.0 | 0.00 | 0.00 | 0.00 | 23 | 957.0 |
| 20260904151320 | 92 | 0 | 0.0 | 0.0 | 0.00 | 0.00 | 0.00 | 22 | 957.0 |
| 20260904150719 | 93 | 0 | 0.0 | 0.0 | 0.00 | 0.00 | 0.00 | 23 | 957.0 |
| 20260904150119 | 94 | 0 | 0.0 | 0.0 | 0.00 | 0.00 | 0.00 | 22 | 957.0 |
| 20260904145518 | 95 | 0 | 0.0 | 0.0 | 0.00 | 0.00 | 0.00 | 22 | 957.0 |
| 20260904144917 | 96 | 0 | 0.0 | 0.0 | 0.00 | 0.00 | 0.00 | 21 | 957.0 |
| 20260904144316 | 96 | 0 | 0.0 | 0.0 | 0.00 | 0.00 | 0.00 | 20 | 957.0 |
| 20260904143715 | 95 | 0 | 0.0 | 0.0 | 0.00 | 0.00 | 0.00 | 20 | 957.0 |
| 20260904143114 | 100 | 0 | 0.0 | 0.0 | 0.00 | 0.00 | 0.00 | 18 | 958.0 |
| 20260904142514 | 102 | 0 | 0.0 | 0.0 | 0.00 | 0.00 | 0.00 | 17 | 958.0 |
| 20260904141913 | 105 | 0 | 0.0 | 0.0 | 0.00 | 0.00 | 0.00 | 16 | 958.0 |
| 20260904141312 | 109 | 0 | 0.0 | 0.0 | 0.00 | 0.00 | 0.00 | 13 | 958.0 |
| 20260904140711 | 120 | 0 | 0.0 | 0.0 | 0.00 | 0.00 | 0.00 | 958.0 | |
| 20260904140110 | 128 | 0 | 0.0 | 0.0 | 0.00 | 0.00 | 0.00 | 958.0 | |
| 20260904135509 | 129 | 0 | 0.0 | 0.0 | 0.00 | 0.00 | 0.00 | 958.0 | |
| 20260904134908 | 127 | 0 | 0.0 | 0.0 | 0.00 | 0.00 | 0.00 | 958.0 | |
| 20260904134307 | 127 | 0 | 0.0 | 0.0 | 0.00 | 0.00 | 0.00 | 958.0 | |
| 20260904133707 | 129 | 0 | 0.0 | 0.0 | 0.00 | 0.00 | 0.00 | 958.0 | |
| 20260904133106 | 126 | 0 | 0.0 | 0.0 | 0.00 | 0.00 | 0.00 | 958.0 | |
| 20260904132505 | 124 | 0 | 0.0 | 0.0 | 0.00 | 0.00 | 0.00 | 958.0 | |
| 20260904131904 | 126 | 0 | 0.0 | 0.0 | 0.00 | 0.00 | 0.00 | 958.0 | |
| 20260904131303 | 125 | 0 | 0.0 | 0.0 | 0.00 | 0.00 | 0.00 | 958.0 | |
| 20260904130702 | 124 | 0 | 0.0 | 0.0 | 0.00 | 0.00 | 0.00 | 958.0 | |
| 20260904125501 | 118 | 0 | 0.0 | 0.0 | 0.00 | 0.00 | 0.00 | 11 | 959.0 |
| 20260904124900 | 118 | 0 | 0.0 | 0.0 | 0.00 | 0.00 | 0.00 | 11 | 959.0 |
| 20260904124259 | 116 | 0 | 0.0 | 0.0 | 0.00 | 0.00 | 0.00 | 12 | 959.0 |
| 20260904123658 | 109 | 0 | 0.0 | 0.0 | 0.00 | 0.00 | 0.00 | 16 | 959.0 |
| 20260904123057 | 94 | 0 | 0.0 | 0.0 | 0.00 | 0.00 | 0.00 | 24 | 959.0 |
| 20260904122457 | 92 | 0 | 0.0 | 0.0 | 0.00 | 0.00 | 0.00 | 25 | 959.0 |
| 20260904121856 | 91 | 0 | 0.0 | 0.0 | 0.00 | 0.00 | 0.00 | 26 | 959.0 |
| 20260904121255 | 91 | 0 | 0.0 | 0.0 | 0.00 | 0.00 | 0.00 | 27 | 959.0 |
| 20260904120654 | 90 | 0 | 0.0 | 0.0 | 0.00 | 0.00 | 0.00 | 28 | 959.0 |
| 20260904120053 | 89 | 0 | 0.0 | 0.0 | 0.00 | 0.00 | 0.00 | 28 | 960.0 |
| 20260904115452 | 89 | 0 | 0.0 | 0.0 | 0.00 | 0.00 | 0.00 | 29 | 960.0 |
| 20260904114852 | 88 | 0 | 0.0 | 0.0 | 0.00 | 0.00 | 0.00 | 31 | 960.0 |
| 20260904114251 | 87 | 0 | 0.0 | 0.0 | 0.00 | 0.00 | 0.00 | 30 | 960.0 |
| 20260904113650 | 86 | 0 | 0.0 | 0.0 | 0.00 | 0.00 | 0.00 | 31 | 960.0 |
| 20260904113049 | 86 | 0 | 0.0 | 0.0 | 0.00 | 0.00 | 0.00 | 32 | 960.0 |
| 20260904112448 | 85 | 0 | 0.0 | 0.0 | 0.00 | 0.00 | 0.00 | 32 | 960.0 |
| 20260904111848 | 86 | 0 | 0.0 | 0.0 | 0.00 | 0.00 | 0.00 | 32 | 960.0 |
| 20260904111247 | 85 | 0 | 0.0 | 0.0 | 0.00 | 0.00 | 0.00 | 33 | 960.0 |
| 20260904110646 | 85 | 0 | 0.0 | 0.0 | 0.00 | 0.00 | 0.00 | 33 | 961.0 |
| 20260904110045 | 84 | 0 | 0.0 | 0.0 | 0.00 | 0.00 | 0.00 | 33 | 961.0 |
| 20260904105444 | 84 | 0 | 0.0 | 0.0 | 0.00 | 0.00 | 0.00 | 34 | 961.0 |
| 20260904104844 | 83 | 0 | 0.0 | 0.0 | 0.00 | 0.00 | 0.00 | 35 | 961.0 |
| 20260904104243 | 83 | 0 | 0.0 | 0.0 | 0.00 | 0.00 | 0.00 | 35 | 961.0 |
| 20260904103642 | 82 | 0 | 0.0 | 0.0 | 0.00 | 0.00 | 0.00 | 35 | 961.0 |
| 20260904103041 | 83 | 0 | 0.0 | 0.0 | 0.00 | 0.00 | 0.00 | 35 | 961.0 |
| 20260904102440 | 83 | 0 | 0.0 | 0.0 | 0.00 | 0.00 | 0.00 | 35 | 961.0 |
| 20260904101840 | 81 | 0 | 0.0 | 0.0 | 0.00 | 0.00 | 0.00 | 36 | 961.0 |
| 20260904101239 | 81 | 0 | 0.0 | 0.0 | 0.00 | 0.00 | 0.00 | 36 | 961.0 |
| 20260904100638 | 81 | 0 | 0.0 | 0.0 | 0.00 | 0.00 | 0.00 | 36 | 962.0 |
| 20260904100037 | 81 | 0 | 0.0 | 0.0 | 0.00 | 0.00 | 0.00 | 37 | 962.0 |
| 20260904095436 | 81 | 0 | 0.0 | 0.0 | 0.00 | 0.00 | 0.00 | 36 | 962.0 |
| 20260904094836 | 82 | 0 | 0.0 | 0.0 | 0.00 | 0.00 | 0.00 | 37 | 962.0 |
| 20260904094235 | 81 | 0 | 0.0 | 0.0 | 0.00 | 0.00 | 0.00 | 38 | 962.0 |
| 20260904093634 | 81 | 0 | 0.0 | 0.0 | 0.00 | 0.00 | 0.00 | 38 | 962.0 |
| 20260904093033 | 80 | 0 | 0.0 | 0.0 | 0.00 | 0.00 | 0.00 | 40 | 962.0 |
| 20260904092432 | 80 | 0 | 0.0 | 0.0 | 0.00 | 0.00 | 0.00 | 40 | 962.0 |
| 20260904091832 | 79 | 0 | 0.0 | 0.0 | 0.00 | 0.00 | 0.00 | 39 | 962.0 |
| 20260904091231 | 80 | 0 | 0.0 | 0.0 | 0.00 | 0.00 | 0.00 | 40 | 962.0 |
| 20260904090630 | 78 | 0 | 0.0 | 0.0 | 0.00 | 0.00 | 0.00 | 41 | 962.0 |
| 20260904090029 | 78 | 0 | 0.0 | 0.0 | 0.00 | 0.00 | 0.00 | 40 | 962.0 |
| 20260904085428 | 78 | 0 | 0.0 | 0.0 | 0.00 | 0.00 | 0.00 | 41 | 963.0 |
| 20260904084828 | 78 | 0 | 0.0 | 0.0 | 0.00 | 0.00 | 0.00 | 41 | 963.0 |
| 20260904084227 | 78 | 0 | 0.0 | 0.0 | 0.00 | 0.00 | 0.00 | 42 | 963.0 |
| 20260904083626 | 78 | 0 | 0.0 | 0.0 | 0.00 | 0.00 | 0.00 | 43 | 963.0 |
| 20260904083025 | 78 | 0 | 0.0 | 0.0 | 0.00 | 0.00 | 0.00 | 43 | 963.0 |
| 20260904082425 | 78 | 0 | 0.0 | 0.0 | 0.00 | 0.00 | 0.00 | 43 | 963.0 |
| 20260904081824 | 77 | 0 | 0.0 | 0.0 | 0.00 | 0.00 | 0.00 | 45 | 963.0 |
| 20260904081223 | 77 | 0 | 0.0 | 0.0 | 0.00 | 0.00 | 0.00 | 44 | 963.0 |
| 20260904080622 | 77 | 0 | 0.0 | 0.0 | 0.00 | 0.00 | 0.00 | 44 | 963.0 |
| 20260904080021 | 77 | 0 | 0.0 | 0.0 | 0.00 | 0.00 | 0.00 | 44 | 963.0 |
| 20260904075421 | 76 | 0 | 0.0 | 0.0 | 0.00 | 0.00 | 0.00 | 45 | 963.0 |
| 20260904074820 | 76 | 0 | 0.0 | 0.0 | 0.00 | 0.00 | 0.00 | 46 | 963.0 |
| 20260904074219 | 76 | 0 | 0.0 | 0.0 | 0.00 | 0.00 | 0.00 | 46 | 963.0 |
| 20260904073618 | 76 | 0 | 0.0 | 0.0 | 0.00 | 0.00 | 0.00 | 47 | 963.0 |
| 20260904073017 | 75 | 0 | 0.0 | 0.0 | 0.00 | 0.00 | 0.00 | 47 | 963.0 |
| 20260904072417 | 75 | 0 | 0.0 | 0.0 | 0.00 | 0.00 | 0.00 | 48 | 963.0 |
| 20260904071816 | 74 | 0 | 0.0 | 0.0 | 0.00 | 0.00 | 0.00 | 49 | 963.0 |
| 20260904071215 | 74 | 0 | 0.0 | 0.0 | 0.00 | 0.00 | 0.00 | 49 | 963.0 |
| 20260904070614 | 74 | 0 | 0.0 | 0.0 | 0.00 | 0.00 | 0.00 | 48 | 963.0 |
| 20260904070014 | 74 | 0 | 0.0 | 0.0 | 0.00 | 0.00 | 0.00 | 49 | 963.0 |
| 20260904065413 | 73 | 0 | 0.0 | 0.0 | 0.00 | 0.00 | 0.00 | 49 | 963.0 |
| 20260904064812 | 74 | 0 | 0.0 | 0.0 | 0.00 | 0.00 | 0.00 | 49 | 963.0 |
| 20260904064211 | 73 | 0 | 0.0 | 0.0 | 0.00 | 0.00 | 0.00 | 50 | 963.0 |
| 20260904063610 | 74 | 0 | 0.0 | 0.0 | 0.00 | 0.00 | 0.00 | 49 | 963.0 |
| 20260904063010 | 73 | 0 | 0.0 | 0.0 | 0.00 | 0.00 | 0.00 | 50 | 963.0 |
| 20260904062409 | 73 | 0 | 0.0 | 0.0 | 0.00 | 0.00 | 0.00 | 50 | 963.0 |
| 20260904061808 | 72 | 0 | 0.0 | 0.0 | 0.00 | 0.00 | 0.00 | 50 | 963.0 |
| 20260904061207 | 72 | 0 | 0.0 | 0.0 | 0.00 | 0.00 | 0.00 | 51 | 963.0 |
| 20260904060606 | 72 | 0 | 0.0 | 0.0 | 0.00 | 0.00 | 0.00 | 50 | 963.0 |
| 20260904060006 | 72 | 0 | 0.0 | 0.0 | 0.00 | 0.00 | 0.00 | 51 | 963.0 |
| 20260904055405 | 71 | 0 | 0.0 | 0.0 | 0.00 | 0.00 | 0.00 | 53 | 963.0 |
| 20260904054804 | 72 | 0 | 0.0 | 0.0 | 0.00 | 0.00 | 0.00 | 51 | 963.0 |
| 20260904054203 | 72 | 0 | 0.0 | 0.0 | 0.00 | 0.00 | 0.00 | 51 | 963.0 |
| 20260904053602 | 72 | 0 | 0.0 | 0.0 | 0.00 | 0.00 | 0.00 | 51 | 963.0 |
| 20260904053002 | 72 | 0 | 0.0 | 0.0 | 0.00 | 0.00 | 0.00 | 51 | 963.0 |
| 20260904052401 | 72 | 0 | 0.0 | 0.0 | 0.00 | 0.00 | 0.00 | 50 | 963.0 |
| 20260904051800 | 71 | 0 | 0.0 | 0.0 | 0.00 | 0.00 | 0.00 | 51 | 963.0 |
| 20260904051159 | 72 | 0 | 0.0 | 0.0 | 0.00 | 0.00 | 0.00 | 50 | 963.0 |
| 20260904050559 | 72 | 0 | 0.0 | 0.0 | 0.00 | 0.00 | 0.00 | 50 | 963.0 |
| 20260904045958 | 72 | 0 | 0.0 | 0.0 | 0.00 | 0.00 | 0.00 | 49 | 963.0 |
| 20260904045357 | 71 | 0 | 0.0 | 0.0 | 0.00 | 0.00 | 0.00 | 51 | 963.0 |
| 20260904044756 | 71 | 0 | 0.0 | 0.0 | 0.00 | 0.00 | 0.00 | 50 | 963.0 |
| 20260904044155 | 72 | 0 | 0.0 | 0.0 | 0.00 | 0.00 | 0.00 | 50 | 963.0 |
| 20260904043555 | 72 | 0 | 0.0 | 0.0 | 0.00 | 0.00 | 0.00 | 49 | 963.0 |
| 20260904042954 | 72 | 0 | 0.0 | 0.0 | 0.00 | 0.00 | 0.00 | 50 | 963.0 |
| 20260904042353 | 71 | 0 | 0.0 | 0.0 | 0.00 | 0.00 | 0.00 | 50 | 963.0 |
| 20260904041752 | 71 | 0 | 0.0 | 0.0 | 0.00 | 0.00 | 0.00 | 50 | 963.0 |
| 20260904041151 | 71 | 0 | 0.0 | 0.0 | 0.00 | 0.00 | 0.00 | 51 | 963.0 |
| 20260904040551 | 71 | 0 | 0.0 | 0.0 | 0.00 | 0.00 | 0.00 | 51 | 963.0 |
| 20260904035950 | 71 | 0 | 0.0 | 0.0 | 0.00 | 0.00 | 0.00 | 50 | 964.0 |
| 20260904035349 | 72 | 0 | 0.0 | 0.0 | 0.00 | 0.00 | 0.00 | 49 | 963.0 |
| 20260904034748 | 72 | 0 | 0.0 | 0.0 | 0.00 | 0.00 | 0.00 | 50 | 964.0 |
| 20260904034148 | 72 | 0 | 0.0 | 0.0 | 0.00 | 0.00 | 0.00 | 49 | 964.0 |
| 20260904033547 | 71 | 0 | 0.0 | 0.0 | 0.00 | 0.00 | 0.00 | 51 | 964.0 |
| 20260904032946 | 72 | 0 | 0.0 | 0.0 | 0.00 | 0.00 | 0.00 | 50 | 964.0 |
| 20260904032345 | 73 | 0 | 0.0 | 0.0 | 0.00 | 0.00 | 0.00 | 50 | 964.0 |
| 20260904031744 | 72 | 0 | 0.0 | 0.0 | 0.00 | 0.00 | 0.00 | 51 | 964.0 |
| 20260904031144 | 72 | 0 | 0.0 | 0.0 | 0.00 | 0.00 | 0.00 | 51 | 964.0 |
| 20260904030543 | 71 | 0 | 0.0 | 0.0 | 0.00 | 0.00 | 0.00 | 51 | 964.0 |
| 20260904025942 | 72 | 0 | 0.0 | 0.0 | 0.00 | 0.00 | 0.00 | 51 | 964.0 |
| 20260904025341 | 72 | 0 | 0.0 | 0.0 | 0.00 | 0.00 | 0.00 | 50 | 964.0 |
| 20260904024741 | 73 | 0 | 0.0 | 0.0 | 0.00 | 0.00 | 0.00 | 50 | 964.0 |
| 20260904024140 | 72 | 0 | 0.0 | 0.0 | 0.00 | 0.00 | 0.00 | 50 | 964.0 |
| 20260904023539 | 72 | 0 | 0.0 | 0.0 | 0.00 | 0.00 | 0.00 | 50 | 964.0 |
| 20260904022938 | 72 | 0 | 0.0 | 0.0 | 0.00 | 0.00 | 0.00 | 50 | 964.0 |
| 20260904022337 | 73 | 0 | 0.0 | 0.0 | 0.00 | 0.00 | 0.00 | 50 | 964.0 |
| 20260904021737 | 72 | 0 | 0.0 | 0.0 | 0.00 | 0.00 | 0.00 | 50 | 964.0 |
| 20260904021136 | 73 | 0 | 0.0 | 0.0 | 0.00 | 0.00 | 0.00 | 50 | 964.0 |
| 20260904020535 | 73 | 0 | 0.0 | 0.0 | 0.00 | 0.00 | 0.00 | 51 | 964.0 |
| 20260904015934 | 72 | 0 | 0.0 | 0.0 | 0.00 | 0.00 | 0.00 | 51 | 964.0 |
| 20260904015333 | 73 | 0 | 0.0 | 0.0 | 0.00 | 0.00 | 0.00 | 51 | 964.0 |
| 20260904014733 | 73 | 0 | 0.0 | 0.0 | 0.00 | 0.00 | 0.00 | 50 | 964.0 |
| 20260904014132 | 73 | 0 | 0.0 | 0.0 | 0.00 | 0.00 | 0.00 | 50 | 964.0 |
| 20260904013531 | 72 | 0 | 0.0 | 0.0 | 0.00 | 0.00 | 0.00 | 51 | 964.0 |
| 20260904012930 | 72 | 0 | 0.0 | 0.0 | 0.00 | 0.00 | 0.00 | 52 | 964.0 |
| 20260904012330 | 73 | 0 | 0.0 | 0.0 | 0.00 | 0.00 | 0.00 | 51 | 964.0 |
| 20260904011729 | 73 | 0 | 0.0 | 0.0 | 0.00 | 0.00 | 0.00 | 50 | 964.0 |
| 20260904011128 | 73 | 0 | 0.0 | 0.0 | 0.00 | 0.00 | 0.00 | 50 | 964.0 |
| 20260904010527 | 72 | 0 | 0.0 | 0.0 | 0.00 | 0.00 | 0.00 | 51 | 964.0 |
| 20260904005926 | 72 | 0 | 0.0 | 0.0 | 0.00 | 0.00 | 0.00 | 51 | 964.0 |
| 20260904005326 | 72 | 0 | 0.0 | 0.0 | 0.00 | 0.00 | 0.00 | 52 | 964.0 |
| 20260904004725 | 73 | 0 | 0.0 | 0.0 | 0.00 | 0.00 | 0.00 | 51 | 964.0 |
| 20260904004124 | 73 | 0 | 0.0 | 0.0 | 0.00 | 0.00 | 0.00 | 50 | 964.0 |
| 20260904003523 | 72 | 0 | 0.0 | 0.0 | 0.00 | 0.00 | 0.00 | 52 | 964.0 |
| 20260904002922 | 73 | 0 | 0.0 | 0.0 | 0.00 | 0.00 | 0.00 | 50 | 964.0 |
| 20260904002322 | 72 | 0 | 0.0 | 0.0 | 0.00 | 0.00 | 0.00 | 51 | 964.0 |
| 20260904001721 | 73 | 0 | 0.0 | 0.0 | 0.00 | 0.00 | 0.00 | 50 | 964.0 |
| 20260904001120 | 73 | 0 | 0.0 | 0.0 | 0.00 | 0.00 | 0.00 | 50 | 964.0 |
| 20260904000519 | 72 | 0 | 0.0 | 0.0 | 0.00 | 0.00 | 0.00 | 52 | 964.0 |
| 20260903235918 | 73 | 0 | 0.0 | 0.0 | 0.00 | 0.00 | 0.00 | 50 | 964.0 |
| 20260903235318 | 72 | 0 | 0.0 | 0.0 | 0.00 | 0.00 | 0.00 | 51 | 964.0 |
| 20260903234717 | 73 | 0 | 0.0 | 0.0 | 0.00 | 0.00 | 0.00 | 50 | 964.0 |
| 20260903234116 | 72 | 0 | 0.0 | 0.0 | 0.00 | 0.00 | 0.00 | 52 | 964.0 |
| 20260903233515 | 72 | 0 | 0.0 | 0.0 | 0.00 | 0.00 | 0.00 | 50 | 964.0 |
| 20260903232915 | 72 | 0 | 0.0 | 0.0 | 0.00 | 0.00 | 0.00 | 51 | 964.0 |
| 20260903232314 | 73 | 0 | 0.0 | 0.0 | 0.00 | 0.00 | 0.00 | 49 | 965.0 |
| 20260903231713 | 73 | 0 | 0.0 | 0.0 | 0.00 | 0.00 | 0.00 | 48 | 965.0 |
| 20260903231112 | 73 | 0 | 0.0 | 0.0 | 0.00 | 0.00 | 0.00 | 49 | 964.0 |
| 20260903230511 | 73 | 0 | 0.0 | 0.0 | 0.00 | 0.00 | 0.00 | 49 | 964.0 |
| 20260903225911 | 72 | 0 | 0.0 | 0.0 | 0.00 | 0.00 | 0.00 | 49 | 964.0 |
| 20260903225310 | 73 | 0 | 0.0 | 0.0 | 0.00 | 0.00 | 0.00 | 49 | 964.0 |
| 20260903224709 | 73 | 0 | 0.0 | 0.0 | 0.00 | 0.00 | 0.00 | 47 | 964.0 |
| 20260903224108 | 73 | 0 | 0.0 | 0.0 | 0.00 | 0.00 | 0.00 | 48 | 964.0 |
| 20260903223508 | 73 | 0 | 0.0 | 0.0 | 0.00 | 0.00 | 0.00 | 48 | 965.0 |
| 20260903222907 | 73 | 0 | 0.0 | 0.0 | 0.00 | 0.00 | 0.00 | 49 | 965.0 |
| 20260903222306 | 73 | 0 | 0.0 | 0.0 | 0.00 | 0.00 | 0.00 | 49 | 965.0 |
| 20260903221705 | 73 | 0 | 0.0 | 0.0 | 0.00 | 0.00 | 0.00 | 49 | 965.0 |
| 20260903221104 | 73 | 0 | 0.0 | 0.0 | 0.00 | 0.00 | 0.00 | 51 | 965.0 |
| 20260903220504 | 72 | 0 | 0.0 | 0.0 | 0.00 | 0.00 | 0.00 | 51 | 965.0 |
| 20260903215903 | 73 | 0 | 0.0 | 0.0 | 0.00 | 0.00 | 0.00 | 50 | 965.0 |
| 20260903215305 | 73 | 0 | 0.0 | 0.0 | 0.00 | 0.00 | 0.00 | 50 | 965.0 |
| 20260903214701 | 73 | 0 | 0.0 | 0.0 | 0.00 | 0.00 | 0.00 | 50 | 965.0 |
| 20260903214100 | 73 | 0 | 0.0 | 0.0 | 0.00 | 0.00 | 0.00 | 51 | 965.0 |
| 20260903213500 | 72 | 0 | 0.0 | 0.0 | 0.00 | 0.00 | 0.00 | 51 | 965.0 |
| 20260903212859 | 73 | 0 | 0.0 | 0.0 | 0.00 | 0.00 | 0.00 | 50 | 964.0 |
| 20260903212258 | 74 | 0 | 0.0 | 0.0 | 0.00 | 0.00 | 0.00 | 50 | 964.0 |
| 20260903211657 | 74 | 0 | 0.0 | 0.0 | 0.00 | 0.00 | 0.00 | 49 | 964.0 |
| 20260903211056 | 74 | 0 | 0.0 | 0.0 | 0.00 | 0.00 | 0.00 | 49 | 964.0 |
| 20260903210456 | 75 | 0 | 0.0 | 0.0 | 0.00 | 0.00 | 0.00 | 48 | 964.0 |
| 20260903205855 | 75 | 0 | 0.0 | 0.0 | 0.00 | 0.00 | 0.00 | 48 | 964.0 |
| 20260903205254 | 74 | 0 | 0.0 | 0.0 | 0.00 | 0.00 | 0.00 | 47 | 964.0 |
| 20260903204653 | 75 | 0 | 0.0 | 0.0 | 0.00 | 0.00 | 0.00 | 47 | 964.0 |
| 20260903204053 | 74 | 0 | 0.0 | 0.0 | 0.00 | 0.00 | 0.00 | 47 | 964.0 |
| 20260903203452 | 75 | 0 | 0.0 | 0.0 | 0.00 | 0.00 | 0.00 | 47 | 965.0 |
| 20260903202851 | 75 | 0 | 0.0 | 0.0 | 0.00 | 0.00 | 0.00 | 47 | 965.0 |
| 20260903202250 | 75 | 0 | 0.0 | 0.0 | 0.00 | 0.00 | 0.00 | 47 | 965.0 |
| 20260903201649 | 75 | 0 | 0.0 | 0.0 | 0.00 | 0.00 | 0.00 | 48 | 964.0 |
| 20260903201049 | 75 | 0 | 0.0 | 0.0 | 0.00 | 0.00 | 0.00 | 47 | 964.0 |
| 20260903200448 | 75 | 0 | 0.0 | 0.0 | 0.00 | 0.00 | 0.00 | 48 | 964.0 |
| 20260903195847 | 75 | 0 | 0.0 | 0.0 | 0.00 | 0.00 | 0.00 | 46 | 964.0 |
| 20260903195246 | 75 | 0 | 0.0 | 0.0 | 0.00 | 0.00 | 0.00 | 47 | 964.0 |
| 20260903194645 | 75 | 0 | 0.0 | 0.0 | 0.00 | 0.00 | 0.00 | 46 | 964.0 |
| 20260903194045 | 75 | 0 | 0.0 | 0.0 | 0.00 | 0.00 | 0.00 | 47 | 964.0 |
| 20260903193444 | 76 | 0 | 0.0 | 0.0 | 0.00 | 0.00 | 0.00 | 45 | 964.0 |
| 20260903192843 | 75 | 0 | 0.0 | 0.0 | 0.00 | 0.00 | 0.00 | 46 | 964.0 |
| 20260903192242 | 76 | 0 | 0.0 | 0.0 | 0.00 | 0.00 | 0.00 | 45 | 964.0 |
| 20260903191642 | 76 | 0 | 0.0 | 0.0 | 0.00 | 0.00 | 0.00 | 45 | 964.0 |
| 20260903191041 | 76 | 0 | 0.0 | 0.0 | 0.00 | 0.00 | 0.00 | 44 | 964.0 |
| 20260903190440 | 76 | 0 | 0.0 | 0.0 | 0.00 | 0.00 | 0.00 | 44 | 964.0 |
| 20260903185839 | 76 | 0 | 0.0 | 0.0 | 0.00 | 0.00 | 0.00 | 43 | 964.0 |
| 20260903185238 | 76 | 0 | 0.0 | 0.0 | 0.00 | 0.00 | 0.00 | 44 | 964.0 |
| 20260903184638 | 76 | 0 | 0.0 | 0.0 | 0.00 | 0.00 | 0.00 | 42 | 964.0 |
| 20260903184037 | 76 | 0 | 0.0 | 0.0 | 0.00 | 0.00 | 0.00 | 43 | 964.0 |
| 20260903183436 | 76 | 0 | 0.0 | 0.0 | 0.00 | 0.00 | 0.00 | 43 | 964.0 |
| 20260903182835 | 77 | 0 | 0.0 | 0.0 | 0.00 | 0.00 | 0.00 | 42 | 964.0 |
| 20260903182234 | 77 | 0 | 0.0 | 0.0 | 0.00 | 0.00 | 0.00 | 42 | 964.0 |
| 20260903181634 | 78 | 0 | 0.0 | 0.0 | 0.00 | 0.00 | 0.00 | 42 | 963.0 |
| 20260903181033 | 78 | 0 | 0.0 | 0.0 | 0.00 | 0.00 | 0.00 | 40 | 963.0 |
| 20260903180432 | 78 | 0 | 0.0 | 0.0 | 0.00 | 0.00 | 0.00 | 41 | 963.0 |
| 20260903175831 | 79 | 0 | 0.0 | 0.0 | 0.00 | 0.00 | 0.00 | 39 | 963.0 |
| 20260903175230 | 79 | 0 | 0.0 | 0.0 | 0.00 | 0.00 | 0.00 | 40 | 963.0 |
| 20260903174630 | 79 | 0 | 0.0 | 0.0 | 0.00 | 0.00 | 0.00 | 40 | 963.0 |
| 20260903174029 | 79 | 0 | 0.0 | 0.0 | 0.00 | 0.00 | 0.00 | 39 | 963.0 |
| 20260903173428 | 79 | 0 | 0.0 | 0.0 | 0.00 | 0.00 | 0.00 | 39 | 963.0 |
| 20260903172827 | 79 | 0 | 0.0 | 0.0 | 0.00 | 0.00 | 0.00 | 38 | 963.0 |
| 20260903172226 | 79 | 0 | 0.0 | 0.0 | 0.00 | 0.00 | 0.00 | 39 | 963.0 |
| 20260903171626 | 80 | 0 | 0.0 | 0.0 | 0.00 | 0.00 | 0.00 | 37 | 963.0 |
| 20260903171025 | 79 | 0 | 0.0 | 0.0 | 0.00 | 0.00 | 0.00 | 37 | 963.0 |
| 20260903170424 | 80 | 0 | 0.0 | 0.0 | 0.00 | 0.00 | 0.00 | 37 | 963.0 |
| 20260903165823 | 80 | 0 | 0.0 | 0.0 | 0.00 | 0.00 | 0.00 | 36 | 963.0 |
| 20260903165222 | 80 | 0 | 0.0 | 0.0 | 0.00 | 0.00 | 0.00 | 37 | 963.0 |
| 20260903164622 | 81 | 0 | 0.0 | 0.0 | 0.00 | 0.00 | 0.00 | 36 | 963.0 |
| 20260903164021 | 81 | 0 | 0.0 | 0.0 | 0.00 | 0.00 | 0.00 | 36 | 963.0 |
| 20260903163420 | 82 | 0 | 0.0 | 0.0 | 0.00 | 0.00 | 0.00 | 38 | 963.0 |
| 20260903162819 | 82 | 0 | 0.0 | 0.0 | 0.00 | 0.00 | 0.00 | 37 | 963.0 |
| 20260903162219 | 82 | 0 | 0.0 | 0.0 | 0.00 | 0.00 | 0.00 | 37 | 963.0 |
| 20260903161618 | 82 | 0 | 0.0 | 0.0 | 0.00 | 0.00 | 0.00 | 37 | 963.0 |
| 20260903161017 | 82 | 0 | 0.0 | 0.0 | 0.00 | 0.00 | 0.00 | 37 | 963.0 |
| 20260903160416 | 83 | 0 | 0.0 | 0.0 | 0.00 | 0.00 | 0.00 | 36 | 963.0 |
| 20260903155815 | 84 | 0 | 0.0 | 0.0 | 0.00 | 0.00 | 0.00 | 36 | 963.0 |
| 20260903155214 | 83 | 0 | 0.0 | 0.0 | 0.00 | 0.00 | 0.00 | 34 | 963.0 |
| 20260903154614 | 84 | 0 | 0.0 | 0.0 | 0.00 | 0.00 | 0.00 | 34 | 963.0 |
| 20260903154013 | 84 | 0 | 0.0 | 0.0 | 0.00 | 0.00 | 0.00 | 34 | 963.0 |
| 20260903153412 | 84 | 0 | 0.0 | 0.0 | 0.00 | 0.00 | 0.00 | 35 | 963.0 |
| 20260903152811 | 84 | 0 | 0.0 | 0.0 | 0.00 | 0.00 | 0.00 | 34 | 963.0 |
| 20260903152210 | 85 | 0 | 0.0 | 0.0 | 0.00 | 0.00 | 0.00 | 34 | 963.0 |